KRNC

Details ICAO KRNC
Name WARREN CO MEM
Region United States
Timezone America/Chicago (UTC-6.0)
Plans Departing 0
Arriving 1
Stats Elevation 1,032 ft / 315 m (AMSL)
Location 35.698700° -85.843821°
Runways 1
Magnetic Variation 4.384° W
Sunrise 2017-12-15 12:47:25 UTC / 2017-12-15 06:47:25 Local
Sunset 2017-12-15 22:32:39 UTC / 2017-12-15 16:32:39 Local
Advertisement - Login to hide

Runways

ID Width Length Bearing (true) Bearing (mag) Surface Threshold Offset Overrun Length
05 100 ft / 30 m 4,998 ft / 1,523 m 50.44° 54.82° Asphalt 0 ft / 0 m 0 ft / 0 m
23 100 ft / 30 m 4,998 ft / 1,523 m 230.45° 234.83° Asphalt 290 ft / 88 m 290 ft / 88 m

Approach Navaids

Runway Type Ident Frequency Range Bearing (true) Bearing (mag) Slope Elevation
23 Localiser IRNC 111.50 MHz 18 nm / 33 km 230.62° 235.01° - 1,032 ft / 315 m (AMSL)

Map

Weather


0- 5 10 15 20 25 30 35+ Temperature / ° C

Clouds and Precipitation
Forecast for 2017-12-16 00:00 UTC. Updated an hour ago

Ground ~20,000 ft ~40,000 ft Winds

METAR

KRNC 152155Z AUTO 25005KT 10SM CLR 02/M06 A3014 RMK A01

TAF

Not found

Frequencies

Recorded 135.52 MHz AWOS 3
Unicom 122.80 MHz CTAF/UNICOM
Warning: Do not use this data for real-world aviation or navigation. No guarantee of current accuracy is given.